Time;durP1;ratioP1;P1;durP2;ratioP2;P2;SDS_P1;SDS_P2;PMS_P1;PMS_P2;Temp;Humidity;BMP_temperature;BMP_pressure;BME280_temperature;BME280_humidity;BME280_pressure;Samples;Min_cycle;Max_cycle;Signal;HPM_P1;HPM_P2
2021/01/16 00:00:51;;;;;;;0.00;0.00;;;15.40;60.20;;;;;;4197846;28;20060;-41
2021/01/16 00:03:12;;;;;;;0.10;0.10;;;15.50;59.90;;;;;;4180247;28;20137;-41
2021/01/16 00:05:34;;;;;;;0.00;0.00;;;15.60;59.60;;;;;;4182076;28;20056;-41
2021/01/16 00:08:02;;;;;;;0.13;0.13;;;15.70;59.40;;;;;;4197313;28;20048;-41
2021/01/16 00:10:24;;;;;;;0.13;0.13;;;15.70;59.30;;;;;;4197737;28;20052;-41
2021/01/16 00:12:49;;;;;;;0.00;0.00;;;15.70;59.30;;;;;;4197371;28;20479;-41
2021/01/16 00:15:12;;;;;;;0.28;0.28;;;15.60;59.30;;;;;;4197585;28;20495;-41
2021/01/16 00:17:33;;;;;;;0.00;0.00;;;15.60;59.30;;;;;;4197630;28;20052;-40
2021/01/16 00:19:54;;;;;;;0.13;0.13;;;15.60;59.50;;;;;;4197478;28;20061;-41
2021/01/16 00:22:16;;;;;;;1.20;0.63;;;15.70;59.30;;;;;;4197264;28;20059;-42
2021/01/16 00:24:37;;;;;;;0.10;0.10;;;15.90;58.70;;;;;;4197506;28;20122;-41
2021/01/16 00:26:57;;;;;;;0.00;0.00;;;16.00;58.30;;;;;;4197291;28;20075;-41
2021/01/16 00:29:18;;;;;;;2.58;1.70;;;16.10;58.10;;;;;;4197259;28;20048;-41
2021/01/16 00:31:39;;;;;;;0.00;0.00;;;16.10;58.00;;;;;;4197212;28;20525;-41
2021/01/16 00:34:00;;;;;;;0.00;0.00;;;16.10;58.10;;;;;;4197323;28;20056;-40
2021/01/16 00:36:21;;;;;;;0.15;0.15;;;16.00;58.30;;;;;;4196843;28;20127;-41
2021/01/16 00:38:43;;;;;;;0.00;0.00;;;15.90;58.50;;;;;;4197262;28;20410;-40
2021/01/16 00:41:05;;;;;;;0.10;0.10;;;15.90;58.50;;;;;;4196977;28;20492;-41
2021/01/16 00:43:26;;;;;;;0.00;0.00;;;15.90;58.60;;;;;;4197031;28;20056;-41
2021/01/16 00:45:48;;;;;;;0.30;0.30;;;15.90;58.60;;;;;;4197096;28;20052;-41
2021/01/16 00:48:11;;;;;;;0.10;0.10;;;15.80;58.70;;;;;;4196969;28;20503;-41
2021/01/16 00:50:33;;;;;;;0.00;0.00;;;15.80;58.90;;;;;;4195637;28;20067;-41
2021/01/16 00:52:56;;;;;;;0.08;0.08;;;15.70;59.00;;;;;;4180330;28;20150;-41
2021/01/16 00:55:20;;;;;;;0.22;0.15;;;15.70;59.10;;;;;;4179581;28;20458;-41
2021/01/16 00:57:41;;;;;;;0.10;0.10;;;15.60;59.20;;;;;;4180287;28;20570;-41
2021/01/16 01:00:06;;;;;;;0.22;0.22;;;15.60;59.30;;;;;;4179114;28;20064;-40
2021/01/16 01:02:41;;;;;;;0.82;0.82;;;15.50;59.40;;;;;;4194534;28;20045;-41
2021/01/16 01:05:04;;;;;;;0.20;0.20;;;15.50;59.40;;;;;;4196607;28;20131;-41
2021/01/16 01:07:24;;;;;;;0.00;0.00;;;15.50;59.40;;;;;;4196569;28;20084;-40
2021/01/16 01:09:46;;;;;;;0.20;0.20;;;15.50;59.50;;;;;;4195275;28;20133;-41
2021/01/16 01:12:09;;;;;;;0.52;0.52;;;15.40;59.60;;;;;;4196584;28;20118;-46
2021/01/16 01:14:30;;;;;;;0.17;0.17;;;15.40;59.80;;;;;;4196354;28;20052;-45
2021/01/16 01:16:51;;;;;;;5.05;0.22;;;15.50;59.70;;;;;;4196447;28;20053;-41
2021/01/16 01:19:12;;;;;;;1.45;0.57;;;15.70;59.20;;;;;;4196312;28;20048;-41
2021/01/16 01:21:32;;;;;;;0.20;0.20;;;15.90;58.70;;;;;;4196383;28;20494;-42
2021/01/16 01:23:53;;;;;;;0.20;0.20;;;16.00;58.30;;;;;;4196325;28;20319;-42
2021/01/16 01:26:14;;;;;;;0.00;0.00;;;16.00;58.20;;;;;;4196542;28;20106;-42
2021/01/16 01:28:36;;;;;;;0.25;0.25;;;16.00;58.10;;;;;;4196398;28;20064;-41
2021/01/16 01:30:57;;;;;;;0.20;0.20;;;16.10;58.00;;;;;;4179850;28;20576;-41
2021/01/16 01:33:18;;;;;;;0.17;0.17;;;16.10;57.90;;;;;;4179772;28;20514;-41
2021/01/16 01:35:39;;;;;;;0.00;0.00;;;16.10;58.00;;;;;;4186402;28;20478;-41
2021/01/16 01:38:00;;;;;;;1.42;0.43;;;16.00;58.10;;;;;;4196347;28;20076;-41
2021/01/16 01:40:23;;;;;;;0.00;0.00;;;16.00;58.30;;;;;;4196275;28;20094;-40
2021/01/16 01:42:47;;;;;;;0.10;0.10;;;16.00;58.40;;;;;;4196179;28;20071;-41
2021/01/16 01:45:11;;;;;;;0.00;0.00;;;16.00;58.20;;;;;;4195658;28;20102;-40
2021/01/16 01:47:35;;;;;;;0.00;0.00;;;16.20;57.90;;;;;;4196017;28;20123;-41
2021/01/16 01:49:56;;;;;;;0.40;0.40;;;16.30;58.20;;;;;;4195988;28;20130;-42
2021/01/16 01:52:19;;;;;;;0.17;0.17;;;16.40;57.30;;;;;;4195850;28;20055;-42
2021/01/16 01:54:43;;;;;;;0.00;0.00;;;16.40;57.30;;;;;;4195990;28;20510;-40
2021/01/16 01:57:06;;;;;;;0.00;0.00;;;16.30;57.40;;;;;;4195670;28;20062;-42
2021/01/16 01:59:27;;;;;;;0.35;0.35;;;16.30;57.50;;;;;;4195695;28;20095;-41
2021/01/16 02:01:51;;;;;;;0.35;0.35;;;16.30;57.50;;;;;;4194966;28;20131;-41
2021/01/16 02:04:13;;;;;;;0.03;0.03;;;16.40;57.40;;;;;;4195757;28;20139;-41
2021/01/16 02:06:33;;;;;;;0.00;0.00;;;16.60;57.70;;;;;;4195810;28;20143;-41
2021/01/16 02:08:56;;;;;;;0.75;0.75;;;16.70;56.60;;;;;;4195901;28;20053;-41
2021/01/16 02:11:17;;;;;;;1.13;1.13;;;16.70;56.50;;;;;;4195955;28;20052;-41
2021/01/16 02:13:39;;;;;;;0.10;0.10;;;16.60;56.60;;;;;;4195708;28;20490;-41
2021/01/16 02:16:04;;;;;;;0.00;0.00;;;16.50;56.80;;;;;;4195457;28;20460;-41
2021/01/16 02:18:30;;;;;;;0.00;0.00;;;16.40;57.10;;;;;;4195712;28;20075;-47
2021/01/16 02:20:54;;;;;;;0.40;0.40;;;16.30;57.50;;;;;;4195299;28;20040;-41
2021/01/16 02:23:31;;;;;;;0.00;0.00;;;16.20;57.70;;;;;;4194512;28;20147;-41
2021/01/16 02:26:27;;;;;;;0.00;0.00;;;16.30;57.50;;;;;;4182681;28;20155;-41
2021/01/16 02:28:52;;;;;;;0.77;0.77;;;16.50;57.20;;;;;;4195660;28;20457;-41
2021/01/16 02:31:16;;;;;;;0.10;0.10;;;16.50;57.00;;;;;;4195798;28;20063;-41
2021/01/16 02:33:40;;;;;;;0.00;0.00;;;16.50;57.20;;;;;;4195603;28;20056;-41
2021/01/16 02:36:06;;;;;;;0.30;0.30;;;16.40;57.40;;;;;;4186101;28;20052;-41
2021/01/16 02:38:34;;;;;;;0.65;0.65;;;16.30;57.60;;;;;;4195310;28;20730;-41
2021/01/16 02:41:01;;;;;;;0.20;0.20;;;16.30;58.00;;;;;;4195568;28;20056;-41
2021/01/16 02:43:33;;;;;;;0.47;0.47;;;16.30;57.50;;;;;;4195189;28;20056;-43
2021/01/16 02:46:11;;;;;;;0.00;0.00;;;16.40;57.30;;;;;;4185388;28;20106;-42
2021/01/16 02:48:47;;;;;;;2.65;0.55;;;16.40;57.40;;;;;;4195440;28;20059;-41
2021/01/16 02:51:15;;;;;;;0.47;0.47;;;16.30;58.20;;;;;;4195133;28;20620;-41
2021/01/16 02:53:38;;;;;;;1.10;1.00;;;16.30;57.50;;;;;;4195550;28;20058;-42
2021/01/16 02:56:10;;;;;;;0.00;0.00;;;16.50;57.30;;;;;;4195481;28;20155;-42
2021/01/16 02:58:31;;;;;;;0.00;0.00;;;16.60;56.80;;;;;;4195407;28;20518;-41
2021/01/16 03:00:53;;;;;;;0.38;0.38;;;16.70;56.60;;;;;;4195016;28;20074;-43
2021/01/16 03:03:14;;;;;;;0.05;0.05;;;16.60;56.50;;;;;;4195211;28;20056;-42
2021/01/16 03:05:35;;;;;;;0.65;0.65;;;16.60;56.80;;;;;;4194891;28;20056;-41
2021/01/16 03:07:57;;;;;;;0.40;0.40;;;16.50;57.00;;;;;;4195478;28;20498;-41
2021/01/16 03:10:20;;;;;;;0.00;0.00;;;16.30;57.20;;;;;;4195389;28;20078;-41
2021/01/16 03:12:42;;;;;;;0.00;0.00;;;16.30;57.50;;;;;;4178484;28;20055;-41
2021/01/16 03:15:05;;;;;;;0.00;0.00;;;16.30;57.50;;;;;;4193796;28;20521;-41
2021/01/16 03:17:43;;;;;;;0.00;0.00;;;16.40;57.20;;;;;;4195400;28;20052;-41
2021/01/16 03:20:06;;;;;;;1.17;1.17;;;16.50;56.90;;;;;;4195294;28;20048;-43
2021/01/16 03:22:28;;;;;;;0.00;0.00;;;16.50;56.90;;;;;;4194799;28;20049;-41
2021/01/16 03:24:51;;;;;;;0.05;0.05;;;16.40;57.00;;;;;;4195259;28;20080;-42
2021/01/16 03:27:13;;;;;;;0.00;0.00;;;16.40;57.10;;;;;;4195367;28;20126;-41
2021/01/16 03:29:33;;;;;;;;;;;16.40;57.30;;;;;;4195739;28;20143;-43
2021/01/16 03:31:55;;;;;;;0.20;0.20;;;16.30;57.50;;;;;;4195215;28;20043;-41
2021/01/16 03:34:18;;;;;;;0.00;0.00;;;16.20;57.70;;;;;;4195199;28;20118;-41
2021/01/16 03:36:40;;;;;;;1.45;0.45;;;16.10;58.00;;;;;;4196146;28;20129;-41
2021/01/16 03:39:01;;;;;;;0.32;0.32;;;16.20;57.90;;;;;;4198075;28;20048;-41
2021/01/16 03:41:22;;;;;;;1.65;1.55;;;16.20;57.60;;;;;;4198040;28;20538;-41
2021/01/16 03:43:43;;;;;;;0.00;0.00;;;16.40;57.30;;;;;;4197731;28;20056;-41
2021/01/16 03:46:04;;;;;;;0.40;0.40;;;16.70;56.70;;;;;;4197908;28;20434;-42
2021/01/16 03:48:25;;;;;;;0.00;0.00;;;16.80;56.00;;;;;;4198169;28;20562;-41
2021/01/16 03:50:45;;;;;;;0.10;0.10;;;16.90;55.80;;;;;;4196580;28;20099;-42
2021/01/16 03:53:10;;;;;;;0.10;0.10;;;16.90;55.90;;;;;;4197509;28;20532;-40
2021/01/16 03:55:31;;;;;;;0.93;0.90;;;16.80;56.00;;;;;;4198008;28;20457;-42
2021/01/16 03:57:52;;;;;;;1.67;1.02;;;16.60;56.30;;;;;;4197960;28;20052;-41
2021/01/16 04:00:13;;;;;;;0.93;0.93;;;16.60;56.70;;;;;;4197255;28;20078;-41
2021/01/16 04:02:34;;;;;;;0.45;0.45;;;16.50;56.80;;;;;;4197507;28;20048;-42
2021/01/16 04:04:55;;;;;;;0.20;0.20;;;16.40;57.00;;;;;;4197516;28;20474;-41
2021/01/16 04:07:17;;;;;;;;;;;16.30;57.30;;;;;;4198270;28;20169;-41
2021/01/16 04:09:39;;;;;;;1.88;0.98;;;16.30;57.50;;;;;;4197440;28;19927;-41
2021/01/16 04:12:00;;;;;;;1.48;0.65;;;16.20;57.50;;;;;;4197887;28;20491;-42
2021/01/16 04:14:21;;;;;;;0.30;0.30;;;16.30;57.40;;;;;;4197348;28;20053;-41
2021/01/16 04:16:43;;;;;;;0.00;0.00;;;16.30;57.30;;;;;;4196464;28;20045;-41
2021/01/16 04:19:04;;;;;;;;;;;16.20;57.40;;;;;;4197873;28;20048;-41
2021/01/16 04:21:25;;;;;;;0.00;0.00;;;16.20;57.60;;;;;;4197189;28;20574;-42
2021/01/16 04:23:46;;;;;;;0.55;0.52;;;16.30;58.20;;;;;;4196448;28;20680;-47
2021/01/16 04:26:08;;;;;;;0.00;0.00;;;16.50;57.10;;;;;;4197792;28;20494;-41
2021/01/16 04:28:29;;;;;;;0.30;0.30;;;16.60;56.80;;;;;;4197522;28;20083;-41
2021/01/16 04:30:50;;;;;;;0.45;0.45;;;16.60;56.80;;;;;;4197130;28;20169;-43
2021/01/16 04:33:12;;;;;;;0.25;0.25;;;16.50;56.80;;;;;;4197156;28;20064;-43
2021/01/16 04:35:34;;;;;;;0.70;0.68;;;16.50;57.00;;;;;;4197075;28;20052;-45
2021/01/16 04:37:55;;;;;;;0.70;0.68;;;16.40;57.10;;;;;;4197068;28;20114;-45
2021/01/16 04:40:17;;;;;;;0.22;0.22;;;16.40;57.30;;;;;;4197369;28;20053;-42
2021/01/16 04:42:43;;;;;;;0.73;0.73;;;16.50;57.10;;;;;;4197201;28;20044;-45
2021/01/16 04:45:05;;;;;;;0.10;0.10;;;16.70;56.60;;;;;;4196922;28;20056;-45
2021/01/16 04:47:28;;;;;;;0.00;0.00;;;16.90;56.20;;;;;;4196929;28;20490;-41
2021/01/16 04:49:50;;;;;;;0.25;0.25;;;16.90;55.90;;;;;;4196451;28;20048;-42
2021/01/16 04:52:12;;;;;;;0.45;0.45;;;16.80;56.10;;;;;;4196971;28;20052;-44
2021/01/16 04:54:34;;;;;;;0.43;0.43;;;16.70;56.30;;;;;;4197070;28;20414;-41
2021/01/16 04:56:55;;;;;;;0.00;0.00;;;16.70;56.60;;;;;;4197000;28;20056;-41
2021/01/16 04:59:17;;;;;;;0.00;0.00;;;16.60;56.70;;;;;;4196650;28;20092;-42
2021/01/16 05:01:38;;;;;;;0.43;0.43;;;16.60;56.90;;;;;;4196927;28;20056;-41
2021/01/16 05:04:00;;;;;;;0.00;0.00;;;16.50;57.10;;;;;;4195698;28;20074;-41
2021/01/16 05:06:23;;;;;;;0.00;0.00;;;16.40;57.40;;;;;;4196562;28;20131;-41
2021/01/16 05:08:44;;;;;;;0.43;0.43;;;16.30;57.60;;;;;;4196689;28;20425;-47
2021/01/16 05:11:07;;;;;;;0.00;0.00;;;16.30;57.70;;;;;;4196757;28;20064;-42
2021/01/16 05:13:32;;;;;;;0.52;0.43;;;16.20;57.90;;;;;;4196148;28;20048;-42
2021/01/16 05:15:59;;;;;;;2.05;0.55;;;16.10;58.10;;;;;;4196681;28;20743;-42
2021/01/16 05:18:22;;;;;;;0.05;0.05;;;16.00;58.40;;;;;;4196654;28;20053;-41
2021/01/16 05:20:44;;;;;;;0.10;0.10;;;16.00;58.40;;;;;;4196240;28;20044;-41
2021/01/16 05:23:12;;;;;;;0.20;0.20;;;16.10;58.10;;;;;;4196377;28;20048;-41
2021/01/16 05:25:34;;;;;;;0.90;0.82;;;16.30;57.80;;;;;;4196371;28;20052;-41
2021/01/16 05:28:05;;;;;;;0.10;0.10;;;16.40;57.40;;;;;;4196395;28;20059;-40
2021/01/16 05:30:27;;;;;;;0.00;0.00;;;16.50;57.20;;;;;;4196124;28;20044;-41
2021/01/16 05:32:49;;;;;;;0.00;0.00;;;16.50;57.10;;;;;;4196272;28;20063;-41
2021/01/16 05:35:17;;;;;;;0.10;0.10;;;16.60;56.80;;;;;;4196093;28;20079;-41
2021/01/16 05:37:38;;;;;;;0.10;0.10;;;16.80;56.30;;;;;;4196319;28;20494;-41
2021/01/16 05:39:59;;;;;;;0.55;0.55;;;17.00;55.90;;;;;;4194983;28;20045;-41
2021/01/16 05:42:20;;;;;;;0.38;0.38;;;17.00;55.70;;;;;;4196170;28;20494;-43
2021/01/16 05:44:44;;;;;;;0.10;0.10;;;17.00;55.80;;;;;;4179699;28;20564;-41
2021/01/16 05:47:05;;;;;;;0.00;0.00;;;16.90;56.10;;;;;;4179715;28;20056;-42
2021/01/16 05:49:27;;;;;;;0.20;0.20;;;16.70;56.40;;;;;;4179699;28;20068;-42
2021/01/16 05:51:50;;;;;;;0.00;0.00;;;16.60;56.70;;;;;;4179480;28;20469;-41
2021/01/16 05:54:12;;;;;;;0.00;0.00;;;16.60;56.90;;;;;;4179535;28;20461;-41
2021/01/16 05:56:36;;;;;;;3.00;2.17;;;16.60;56.80;;;;;;4179522;28;20127;-41
2021/01/16 05:58:59;;;;;;;0.10;0.10;;;16.60;56.80;;;;;;4179386;28;20130;-41
2021/01/16 06:01:23;;;;;;;0.55;0.55;;;16.50;57.00;;;;;;4194567;28;20063;-41
2021/01/16 06:03:44;;;;;;;0.38;0.38;;;16.40;57.10;;;;;;4195819;28;20048;-41
2021/01/16 06:06:11;;;;;;;;;;;16.50;56.90;;;;;;4196393;28;20469;-45
2021/01/16 06:08:32;;;;;;;4.47;1.13;;;16.50;56.70;;;;;;4196046;28;19926;-41
2021/01/16 06:10:55;;;;;;;0.00;0.00;;;16.50;56.70;;;;;;4195751;28;20760;-41
2021/01/16 06:13:17;;;;;;;1.95;0.65;;;16.50;56.90;;;;;;4195724;28;20059;-41
2021/01/16 06:15:43;;;;;;;0.00;0.00;;;16.50;56.90;;;;;;4195809;28;20111;-41
2021/01/16 06:18:07;;;;;;;1.23;0.45;;;16.40;57.00;;;;;;4195854;28;20102;-41
2021/01/16 06:20:33;;;;;;;0.00;0.00;;;16.50;56.90;;;;;;4195562;28;20130;-42
2021/01/16 06:22:54;;;;;;;0.10;0.10;;;16.60;56.70;;;;;;4195779;28;20052;-41
2021/01/16 06:25:18;;;;;;;0.00;0.00;;;16.50;56.60;;;;;;4195635;28;20056;-42
2021/01/16 06:27:41;;;;;;;0.00;0.00;;;16.50;56.80;;;;;;4195621;28;20555;-41
2021/01/16 06:30:05;;;;;;;0.20;0.20;;;16.40;56.90;;;;;;4195598;28;20479;-42
2021/01/16 06:32:27;;;;;;;0.28;0.28;;;16.40;57.00;;;;;;4195756;28;20511;-41
2021/01/16 06:35:04;;;;;;;0.00;0.00;;;16.40;57.10;;;;;;4195458;28;20052;-41
2021/01/16 06:37:30;;;;;;;0.93;0.85;;;16.30;57.10;;;;;;4195573;28;20079;-41
2021/01/16 06:39:56;;;;;;;0.00;0.00;;;16.30;57.40;;;;;;4195640;28;20536;-41
2021/01/16 06:42:22;;;;;;;0.43;0.43;;;16.30;57.30;;;;;;4195622;28;20141;-42
2021/01/16 06:44:43;;;;;;;2.08;0.90;;;16.50;57.10;;;;;;4178905;28;20146;-41
2021/01/16 06:47:04;;;;;;;0.20;0.20;;;16.60;56.80;;;;;;4178881;28;20079;-41
2021/01/16 06:49:29;;;;;;;0.00;0.00;;;16.60;56.40;;;;;;4179458;28;20428;-41
2021/01/16 06:51:51;;;;;;;0.00;0.00;;;16.60;56.50;;;;;;4190702;28;20063;-41
2021/01/16 06:54:12;;;;;;;0.20;0.20;;;16.70;56.40;;;;;;4195600;28;20052;-41
2021/01/16 06:56:38;;;;;;;0.00;0.00;;;16.80;56.10;;;;;;4195663;28;20056;-41
2021/01/16 06:58:59;;;;;;;0.45;0.45;;;16.80;56.10;;;;;;4195392;28;20064;-41
2021/01/16 07:01:29;;;;;;;0.03;0.03;;;16.80;56.20;;;;;;4195154;28;20499;-42
2021/01/16 07:03:50;;;;;;;0.20;0.20;;;16.70;56.30;;;;;;4195174;28;20059;-43
2021/01/16 07:06:12;;;;;;;;;;;16.60;57.00;;;;;;4194611;28;20122;-42
2021/01/16 07:08:34;;;;;;;0.25;0.25;;;16.50;58.00;;;;;;4195477;28;20019;-42
2021/01/16 07:10:56;;;;;;;0.00;0.00;;;16.60;57.80;;;;;;4195309;28;20052;-41
2021/01/16 07:13:19;;;;;;;0.00;0.00;;;16.80;57.10;;;;;;4197534;28;20418;-41
2021/01/16 07:15:46;;;;;;;4.00;3.63;;;17.00;56.70;;;;;;4191067;28;20826;-41
2021/01/16 07:18:08;;;;;;;0.32;0.32;;;17.10;56.00;;;;;;4197985;28;20052;-42
2021/01/16 07:20:30;;;;;;;0.20;0.20;;;17.10;56.00;;;;;;4194333;28;20070;-42
2021/01/16 07:22:55;;;;;;;0.55;0.55;;;17.00;55.90;;;;;;4196921;28;20414;-43
2021/01/16 07:25:16;;;;;;;2.80;1.55;;;16.90;56.20;;;;;;4197226;28;21566;-41
2021/01/16 07:27:38;;;;;;;0.10;0.10;;;16.80;56.40;;;;;;4197419;28;20051;-42
2021/01/16 07:30:01;;;;;;;0.00;0.00;;;16.70;56.70;;;;;;4197255;28;20041;-42
2021/01/16 07:32:39;;;;;;;0.00;0.00;;;16.60;56.80;;;;;;4197714;28;20044;-41
2021/01/16 07:35:01;;;;;;;0.10;0.10;;;16.60;57.10;;;;;;4197069;28;20048;-42
2021/01/16 07:37:23;;;;;;;0.43;0.43;;;16.50;57.30;;;;;;4195073;28;20541;-41
2021/01/16 07:39:44;;;;;;;0.00;0.00;;;16.40;57.50;;;;;;4191376;28;20491;-41
2021/01/16 07:42:10;;;;;;;0.40;0.30;;;16.50;57.40;;;;;;4181726;28;20102;-43
2021/01/16 07:44:33;;;;;;;0.00;0.00;;;16.60;57.10;;;;;;4197060;28;20060;-41
2021/01/16 07:47:00;;;;;;;0.57;0.57;;;16.60;57.00;;;;;;4197820;28;20117;-41
2021/01/16 07:49:27;;;;;;;0.00;0.00;;;16.50;57.10;;;;;;4189250;28;20053;-41
2021/01/16 07:51:54;;;;;;;0.52;0.52;;;16.50;57.00;;;;;;4197478;28;20067;-41
2021/01/16 07:54:18;;;;;;;0.10;0.10;;;16.50;57.00;;;;;;4197637;28;20048;-41
2021/01/16 07:56:42;;;;;;;0.20;0.20;;;16.50;57.00;;;;;;4197862;28;20418;-40
2021/01/16 07:59:21;;;;;;;0.17;0.17;;;16.50;57.90;;;;;;4197442;28;20080;-41
2021/01/16 08:02:13;;;;;;;0.00;0.00;;;16.50;57.00;;;;;;4197828;28;20052;-41
2021/01/16 08:04:41;;;;;;;0.00;0.00;;;16.50;57.00;;;;;;4191089;28;20094;-41
2021/01/16 08:07:06;;;;;;;0.50;0.50;;;16.50;57.00;;;;;;4181367;28;20060;-41
2021/01/16 08:09:52;;;;;;;1.75;0.50;;;16.40;57.10;;;;;;4186769;28;20098;-41
2021/01/16 08:12:14;;;;;;;0.17;0.17;;;16.50;57.30;;;;;;4195705;28;20132;-41
2021/01/16 08:14:35;;;;;;;0.28;0.28;;;16.60;56.80;;;;;;4197166;28;20609;-41
2021/01/16 08:16:58;;;;;;;0.40;0.35;;;16.60;56.50;;;;;;4197390;28;20067;-41
2021/01/16 08:19:28;;;;;;;1.77;0.93;;;16.70;56.60;;;;;;4196643;28;20053;-41
2021/01/16 08:21:53;;;;;;;2.42;0.65;;;16.70;57.30;;;;;;4197180;28;20056;-41
2021/01/16 08:24:19;;;;;;;0.00;0.00;;;16.70;56.60;;;;;;4193004;28;20806;-41
2021/01/16 08:26:55;;;;;;;0.00;0.00;;;16.60;56.70;;;;;;4197026;28;20156;-41
2021/01/16 08:29:19;;;;;;;0.00;0.00;;;16.50;57.00;;;;;;4197440;28;20045;-40
2021/01/16 08:31:40;;;;;;;0.30;0.30;;;16.60;57.00;;;;;;4196569;28;20134;-41
2021/01/16 08:34:02;;;;;;;0.05;0.05;;;16.60;56.80;;;;;;4196977;28;20418;-40
2021/01/16 08:36:27;;;;;;;0.10;0.10;;;16.60;56.80;;;;;;4197589;28;20048;-40
2021/01/16 08:38:49;;;;;;;0.00;0.00;;;16.50;56.90;;;;;;4196328;28;20124;-41
2021/01/16 08:41:21;;;;;;;0.22;0.22;;;16.40;57.10;;;;;;4196511;28;20059;-41
2021/01/16 08:43:44;;;;;;;0.03;0.03;;;16.50;57.30;;;;;;4196881;28;20052;-41
2021/01/16 08:46:11;;;;;;;0.93;0.90;;;16.60;57.10;;;;;;4193008;28;20529;-41
2021/01/16 08:48:32;;;;;;;0.00;0.00;;;16.70;56.70;;;;;;4196908;28;20651;-41
2021/01/16 08:50:53;;;;;;;0.08;0.08;;;16.80;56.40;;;;;;4195901;28;20102;-42
2021/01/16 08:53:21;;;;;;;0.30;0.30;;;16.80;56.20;;;;;;4197094;28;20045;-41
2021/01/16 08:55:42;;;;;;;0.38;0.38;;;16.80;56.20;;;;;;4197312;28;20053;-41
2021/01/16 08:58:08;;;;;;;0.30;0.30;;;16.80;56.30;;;;;;4196498;28;20132;-41
2021/01/16 09:00:31;;;;;;;0.13;0.13;;;16.70;56.40;;;;;;4180143;28;20053;-40
2021/01/16 09:03:07;;;;;;;0.57;0.57;;;16.70;56.60;;;;;;4179957;28;20053;-41
2021/01/16 09:05:30;;;;;;;0.28;0.28;;;16.70;56.80;;;;;;4191933;28;20074;-41
2021/01/16 09:07:53;;;;;;;0.00;0.00;;;16.70;56.80;;;;;;4196385;28;20577;-41
2021/01/16 09:10:24;;;;;;;2.00;1.90;;;16.80;56.40;;;;;;4195549;28;20053;-41
2021/01/16 09:12:46;;;;;;;1.85;1.75;;;17.00;56.00;;;;;;4196365;28;20056;-41
2021/01/16 09:15:19;;;;;;;1.17;1.17;;;17.10;55.90;;;;;;4196567;28;20169;-42
2021/01/16 09:17:39;;;;;;;0.90;0.90;;;17.10;55.90;;;;;;4196460;28;20052;-41
2021/01/16 09:20:01;;;;;;;;;;;17.10;55.80;;;;;;4193976;28;20129;-42
2021/01/16 09:22:24;;;;;;;0.30;0.30;;;17.10;55.70;;;;;;4180191;28;19939;-43
2021/01/16 09:24:45;;;;;;;0.17;0.17;;;17.10;55.70;;;;;;4179998;28;20369;-42
2021/01/16 09:27:21;;;;;;;0.00;0.00;;;17.00;55.90;;;;;;4182386;28;20063;-41
2021/01/16 09:29:42;;;;;;;0.45;0.45;;;16.90;56.20;;;;;;4189316;28;20438;-41
2021/01/16 09:32:04;;;;;;;0.00;0.00;;;16.80;56.60;;;;;;4179981;28;20087;-47
2021/01/16 09:34:26;;;;;;;0.10;0.10;;;16.80;56.70;;;;;;4195007;28;20127;-41
2021/01/16 09:36:48;;;;;;;0.00;0.00;;;16.90;56.50;;;;;;4195815;28;20155;-41
2021/01/16 09:39:21;;;;;;;0.08;0.08;;;16.90;56.20;;;;;;4195770;28;20552;-41
2021/01/16 09:41:42;;;;;;;0.10;0.10;;;16.90;56.10;;;;;;4196157;28;20056;-41
2021/01/16 09:44:05;;;;;;;0.82;0.80;;;16.90;56.20;;;;;;4196094;28;20044;-41
2021/01/16 09:46:34;;;;;;;0.88;0.88;;;16.80;56.50;;;;;;4196191;28;20117;-41
2021/01/16 09:48:56;;;;;;;0.00;0.00;;;16.80;56.70;;;;;;4196063;28;20051;-41
2021/01/16 09:51:19;;;;;;;0.10;0.10;;;16.90;56.50;;;;;;4196305;28;20064;-41
2021/01/16 09:53:41;;;;;;;3.95;1.35;;;17.00;56.10;;;;;;4196013;28;20056;-41
2021/01/16 09:56:03;;;;;;;0.20;0.20;;;17.10;56.00;;;;;;4196302;28;20570;-41
2021/01/16 09:58:30;;;;;;;0.30;0.30;;;17.00;56.00;;;;;;4195880;28;20114;-41
2021/01/16 10:00:52;;;;;;;0.05;0.05;;;16.90;56.30;;;;;;4195701;28;20055;-41
2021/01/16 10:03:15;;;;;;;0.65;0.65;;;16.70;56.60;;;;;;4195835;28;20126;-41
2021/01/16 10:05:39;;;;;;;0.10;0.10;;;16.70;56.80;;;;;;4195691;28;20048;-41
2021/01/16 10:08:01;;;;;;;1.65;0.65;;;17.00;56.50;;;;;;4195406;28;20041;-41
2021/01/16 10:10:24;;;;;;;0.10;0.10;;;17.60;55.00;;;;;;4194903;28;20053;-41
2021/01/16 10:12:45;;;;;;;5.50;1.75;;;18.30;53.20;;;;;;4196066;28;20516;-41
2021/01/16 10:15:08;;;;;;;0.43;0.43;;;19.00;51.40;;;;;;4195261;28;20143;-41
2021/01/16 10:17:33;;;;;;;0.13;0.13;;;19.60;49.90;;;;;;4195241;28;20058;-41
2021/01/16 10:20:03;;;;;;;0.20;0.20;;;20.20;48.60;;;;;;4195591;28;20056;-42
2021/01/16 10:22:30;;;;;;;0.95;0.63;;;20.60;47.70;;;;;;4195921;28;20056;-40
2021/01/16 10:24:58;;;;;;;0.05;0.05;;;20.80;47.20;;;;;;4195804;28;20056;-42
2021/01/16 10:27:43;;;;;;;0.40;0.40;;;20.80;47.00;;;;;;4195464;28;20525;-41
2021/01/16 10:30:10;;;;;;;0.57;0.57;;;20.70;47.30;;;;;;4194397;28;20052;-43
2021/01/16 10:32:32;;;;;;;0.20;0.20;;;20.50;47.90;;;;;;4195252;28;20061;-42
2021/01/16 10:34:59;;;;;;;0.00;0.00;;;20.20;48.40;;;;;;4178831;28;20052;-42
2021/01/16 10:37:21;;;;;;;0.28;0.28;;;20.00;49.00;;;;;;4179004;28;20056;-42
2021/01/16 10:39:48;;;;;;;1.08;0.73;;;19.70;49.70;;;;;;4178818;28;20056;-41
2021/01/16 10:42:13;;;;;;;0.00;0.00;;;19.60;50.20;;;;;;4178759;28;20061;-41
2021/01/16 10:44:39;;;;;;;0.15;0.15;;;19.60;50.20;;;;;;4192272;28;20108;-41
2021/01/16 10:47:23;;;;;;;1.08;1.08;;;19.50;50.20;;;;;;4197402;28;20499;-42
2021/01/16 10:49:50;;;;;;;0.43;0.43;;;19.40;50.60;;;;;;4198803;28;20707;-41
2021/01/16 10:52:28;;;;;;;1.42;1.33;;;19.20;51.10;;;;;;4198769;28;20072;-42
2021/01/16 10:54:58;;;;;;;1.27;1.25;;;19.20;51.30;;;;;;4182042;28;20061;-41
2021/01/16 10:57:20;;;;;;;0.35;0.35;;;19.20;51.20;;;;;;4188049;28;20494;-42
2021/01/16 10:59:54;;;;;;;0.10;0.10;;;19.30;51.00;;;;;;4198643;28;20151;-41
2021/01/16 11:02:16;;;;;;;4.20;1.95;;;19.30;50.90;;;;;;4197864;28;20084;-41
2021/01/16 11:04:40;;;;;;;7.78;2.40;;;19.40;50.80;;;;;;4198397;28;20143;-41
2021/01/16 11:07:02;;;;;;;1.75;1.63;;;19.50;50.80;;;;;;4198217;28;20060;-42
2021/01/16 11:10:04;;;;;;;0.43;0.43;;;19.50;50.60;;;;;;4182393;28;20545;-42
2021/01/16 11:12:26;;;;;;;1.23;1.17;;;19.30;50.80;;;;;;4197032;28;20444;-41
2021/01/16 11:14:47;;;;;;;0.82;0.82;;;19.30;51.00;;;;;;4182622;28;20053;-41
2021/01/16 11:17:10;;;;;;;2.42;1.08;;;19.30;51.00;;;;;;4181728;28;20136;-43
2021/01/16 11:19:34;;;;;;;0.20;0.20;;;19.20;51.20;;;;;;4185202;28;20044;-41
2021/01/16 11:22:04;;;;;;;0.82;0.82;;;19.00;51.50;;;;;;4198670;28;20053;-41
2021/01/16 11:25:07;;;;;;;2.00;1.90;;;18.90;51.90;;;;;;4181983;28;20119;-41
2021/01/16 11:27:30;;;;;;;9.98;2.67;;;19.00;51.70;;;;;;4176310;28;20498;-41
2021/01/16 11:29:53;;;;;;;2.13;1.98;;;19.20;51.30;;;;;;4198030;28;20078;-40
2021/01/16 11:32:16;;;;;;;4.75;3.28;;;19.30;51.80;;;;;;4197844;28;20055;-40
2021/01/16 11:35:04;;;;;;;0.88;0.88;;;19.30;51.00;;;;;;4198093;28;20066;-41
2021/01/16 11:37:43;;;;;;;1.13;1.00;;;19.30;50.90;;;;;;4198095;28;20520;-40
2021/01/16 11:40:23;;;;;;;0.65;0.65;;;19.30;50.90;;;;;;4181392;28;20057;-41
2021/01/16 11:42:54;;;;;;;0.20;0.20;;;19.20;51.20;;;;;;4181328;28;20048;-41
2021/01/16 11:45:16;;;;;;;2.30;0.43;;;19.10;51.50;;;;;;4187264;28;20410;-41
2021/01/16 11:47:50;;;;;;;0.43;0.43;;;19.10;51.50;;;;;;4197614;28;20040;-41
2021/01/16 11:50:12;;;;;;;0.28;0.28;;;19.00;51.70;;;;;;4197856;28;20088;-40
2021/01/16 11:52:33;;;;;;;0.57;0.57;;;19.00;51.70;;;;;;4197825;28;20558;-40
2021/01/16 11:54:54;;;;;;;1.95;0.73;;;19.10;51.50;;;;;;4197297;28;20052;-41
2021/01/16 11:57:18;;;;;;;0.35;0.35;;;19.20;51.50;;;;;;4197368;28;20131;-41
2021/01/16 11:59:42;;;;;;;0.50;0.50;;;19.10;51.80;;;;;;4198172;28;20072;-41
2021/01/16 12:02:03;;;;;;;1.02;0.73;;;19.00;52.00;;;;;;4197463;28;20055;-41
2021/01/16 12:04:26;;;;;;;0.95;0.88;;;19.00;52.00;;;;;;4181075;28;20130;-42
2021/01/16 12:06:46;;;;;;;;;;;18.90;52.30;;;;;;4181517;28;20063;-40
2021/01/16 12:09:08;;;;;;;0.40;0.40;;;18.80;52.70;;;;;;4181436;28;20357;-41
2021/01/16 12:11:30;;;;;;;15.82;2.53;;;18.70;53.00;;;;;;4180853;28;20480;-40
2021/01/16 12:13:52;;;;;;;0.82;0.82;;;18.70;53.00;;;;;;4195984;28;20056;-40
2021/01/16 12:16:14;;;;;;;0.28;0.28;;;18.70;52.80;;;;;;4201743;28;20101;-41
2021/01/16 12:18:37;;;;;;;0.80;0.80;;;18.80;52.70;;;;;;4197135;28;20055;-40
2021/01/16 12:21:02;;;;;;;0.35;0.35;;;19.00;52.40;;;;;;4204288;28;20047;-42
2021/01/16 12:23:34;;;;;;;0.63;0.63;;;19.00;52.40;;;;;;4199155;28;20102;-41
2021/01/16 12:25:57;;;;;;;0.00;0.00;;;18.90;52.70;;;;;;4199487;28;20713;-42
2021/01/16 12:28:24;;;;;;;19.10;1.23;;;18.70;53.00;;;;;;4187359;28;20080;-41
2021/01/16 12:30:46;;;;;;;1.13;1.10;;;18.60;53.40;;;;;;4197196;28;20052;-41
2021/01/16 12:33:07;;;;;;;0.52;0.52;;;18.60;53.40;;;;;;4196927;28;20044;-40